Route Details

Aircraft Information
Group: North America Fleet
Types: B738, B752, B762, B763
Route Data
Distance: 710nm
Duration: 2h 14m
Origin METAR: KIAH 100505Z 17007KT 7SM SCT007 BKN025 OVC060 22/21 A3009 RMK AO2 T02170206
Dest. METAR: KLAL 100535Z AUTO 34004KT 7SM OVC002 17/17 A3013 RMK AO2 T01710171
Freight Data
(for Dec 10, 2022)
Load Factor:
34%
Manifested Cargo: 21,529lbs
Financial History
Total Freight: 78,958lbs
Average Load: 0lbs/flt
Fuel Used: 41,262lbs
Avg. Fuel Used: 0lbs/flt
Fuel Expense: $22,334
Avg. Fuel Expense: $0
Avg. Fuel Cost: $0/lbs
Total Gross Income: $201,343
Pilot Pay: $677
Total Expenses: $40,575
Total Revenue: $136,070
Average Revenue: $0

Capitol Logistics 415




KIAH
George Bush Intcntl/Houston Airport
Houston, Texas
KLAL
Lakeland Linder Regional Airport
Lakeland, Florida

Activity Log

Date Flight Route Aircraft Duration
11/19/2022 CPX415 GUMBY3 LLA DCT LEV Y280 CHRGE RAYZZ2 B763 1h 56m
07/27/2022 CPX415 GUMBY3 LCH J2 DEFUN MAATY3 B762 2h 27m
07/17/2022 CPX415 MMUGS4 LLA DCT LEV Y280 CHRGE RAYZZ2 B763 2h 23m